Time;durP1;ratioP1;P1;durP2;ratioP2;P2;SDS_P1;SDS_P2;PMS_P1;PMS_P2;Temp;Humidity;BMP_temperature;BMP_pressure;BME280_temperature;BME280_humidity;BME280_pressure;Samples;Min_cycle;Max_cycle;Signal;HPM_P1;HPM_P2
2022/12/25 00:02:21;;;;;;;48.15;24.30;;;;;;;1.32;83.39;101463.14;1619472;87;21541;-83
2022/12/25 00:04:48;;;;;;;51.13;26.07;;;;;;;1.34;83.31;101464.55;1619546;86;21110;-83
2022/12/25 00:07:15;;;;;;;58.05;28.62;;;;;;;1.28;83.21;101457.63;1613854;88;21199;-83
2022/12/25 00:09:41;;;;;;;54.58;28.05;;;;;;;1.34;83.30;101473.23;1601445;88;21035;-82
2022/12/25 00:12:08;;;;;;;60.43;31.93;;;;;;;1.28;83.22;101470.59;1618314;86;21953;-82
2022/12/25 00:14:35;;;;;;;60.12;31.62;;;;;;;1.36;83.16;101485.02;1624834;86;21007;-82
2022/12/25 00:17:02;;;;;;;61.13;30.60;;;;;;;1.36;83.18;101476.83;1595638;88;21049;-83
2022/12/25 00:19:29;;;;;;;119.93;84.37;;;;;;;1.33;83.17;101475.70;1604664;89;21075;-80
2022/12/25 00:21:57;;;;;;;51.00;31.87;;;;;;;1.36;83.00;101488.50;1626785;87;21042;-80
2022/12/25 00:24:23;;;;;;;46.83;26.77;;;;;;;1.39;83.10;101489.15;1615884;87;21742;-82
2022/12/25 00:26:50;;;;;;;44.83;24.95;;;;;;;1.31;82.97;101480.80;1657934;86;21015;-83
2022/12/25 00:29:17;;;;;;;43.68;24.87;;;;;;;1.42;83.06;101502.73;1648449;86;20961;-83
2022/12/25 00:31:44;;;;;;;42.17;23.05;;;;;;;1.44;83.08;101508.52;1647787;86;21025;-82
2022/12/25 00:34:11;;;;;;;40.90;22.90;;;;;;;1.47;83.04;101511.76;1646976;86;21060;-83
2022/12/25 00:36:38;;;;;;;39.80;23.10;;;;;;;1.49;82.99;101516.66;1648721;86;23050;-83
2022/12/25 00:39:06;;;;;;;43.35;23.30;;;;;;;1.39;82.94;101503.41;1645380;86;21526;-83
2022/12/25 00:44:18;;;;;;;41.80;22.70;;;;;;;1.50;82.89;101520.67;1613216;86;21022;-83
2022/12/25 00:46:44;;;;;;;34.78;20.75;;;;;;;1.51;82.91;101517.27;1609482;89;21383;-83
2022/12/25 00:49:11;;;;;;;41.20;23.92;;;;;;;1.51;82.82;101513.78;1608753;89;21749;-83
2022/12/25 00:51:38;;;;;;;39.33;22.67;;;;;;;1.42;82.86;101504.02;1603426;87;21066;-83
2022/12/25 00:54:05;;;;;;;44.25;24.23;;;;;;;1.53;82.83;101516.98;1618742;87;20994;-83
2022/12/25 00:56:32;;;;;;;42.13;23.52;;;;;;;1.52;82.72;101518.16;1606138;89;21500;-83
2022/12/25 00:58:59;;;;;;;41.60;22.55;;;;;;;1.46;82.70;101516.02;1619027;87;21469;-83
2022/12/25 01:01:26;;;;;;;41.68;24.30;;;;;;;1.50;82.68;101526.23;1620358;87;22734;-82
2022/12/25 01:03:52;;;;;;;36.50;21.80;;;;;;;1.49;82.70;101522.74;1601024;88;21445;-83
2022/12/25 01:06:19;;;;;;;36.20;23.07;;;;;;;1.51;82.72;101522.86;1619057;86;20998;-80
2022/12/25 01:11:31;;;;;;;40.38;24.40;;;;;;;1.43;82.60;101527.89;1633255;86;21448;-83
2022/12/25 01:13:58;;;;;;;45.00;27.17;;;;;;;1.55;82.60;101541.75;1601102;86;21823;-81
2022/12/25 01:16:24;;;;;;;51.68;29.15;;;;;;;1.54;82.60;101538.67;1626392;85;21455;-81
2022/12/25 01:18:51;;;;;;;46.53;27.20;;;;;;;1.42;82.57;101521.78;1642983;85;20998;-80
2022/12/25 01:21:21;;;;;;;48.38;26.42;;;;;;;1.52;82.54;101547.63;1637778;85;21042;-81
2022/12/25 01:23:49;;;;;;;47.15;27.32;;;;;;;1.46;82.52;101539.77;1647906;85;21008;-81
2022/12/25 01:26:17;;;;;;;45.20;26.30;;;;;;;1.43;82.55;101535.67;1608382;87;21779;-80
2022/12/25 01:28:44;;;;;;;49.25;27.65;;;;;;;1.50;82.55;101545.69;1612817;88;21087;-80
2022/12/25 01:31:13;;;;;;;45.58;27.32;;;;;;;1.45;82.44;101540.17;1628179;86;21439;-80
2022/12/25 01:33:40;;;;;;;49.90;27.35;;;;;;;1.43;82.45;101529.19;1636009;86;21448;-81
2022/12/25 01:36:22;;;;;;;49.77;29.07;;;;;;;1.41;82.40;101533.33;1632328;86;21427;-81
2022/12/25 01:38:50;;;;;;;61.15;31.60;;;;;;;1.38;82.50;101530.12;1635049;86;22994;-81
2022/12/25 01:41:20;;;;;;;64.90;31.55;;;;;;;1.32;82.54;101515.02;1590579;87;21072;-81
2022/12/25 01:44:15;;;;;;;62.90;32.83;;;;;;;1.43;82.58;101530.48;1632650;86;20995;-81
2022/12/25 01:46:42;;;;;;;55.98;30.65;;;;;;;1.40;82.62;101522.06;1628741;86;20986;-80
2022/12/25 01:49:16;;;;;;;58.28;29.57;;;;;;;1.52;82.69;101546.70;1608282;88;21019;-80
2022/12/25 01:52:02;;;;;;;56.10;29.37;;;;;;;1.47;82.37;101548.08;1605884;88;21015;-81
2022/12/25 01:54:39;;;;;;;65.30;31.90;;;;;;;1.49;82.47;101550.39;1605238;88;21466;-81
2022/12/25 01:57:09;;;;;;;58.78;30.27;;;;;;;1.43;82.38;101548.65;1582507;89;21469;-80
2022/12/25 01:59:36;;;;;;;59.70;30.75;;;;;;;1.41;82.32;101545.00;1613964;88;21007;-81
2022/12/25 02:02:02;;;;;;;60.45;31.95;;;;;;;1.39;82.42;101540.09;1619691;86;21065;-81
2022/12/25 02:04:39;;;;;;;66.28;33.35;;;;;;;1.39;82.47;101547.52;1629134;86;21739;-81
2022/12/25 02:07:18;;;;;;;78.92;37.08;;;;;;;1.35;82.53;101536.00;1611526;86;21950;-81
2022/12/25 02:09:45;;;;;;;77.30;36.25;;;;;;;1.40;82.55;101549.30;1627903;86;21040;-81
2022/12/25 02:12:24;;;;;;;74.82;37.98;;;;;;;1.38;82.56;101550.88;1632063;86;21006;-81
2022/12/25 02:14:54;;;;;;;76.55;35.55;;;;;;;1.39;82.59;101552.70;1622344;86;21021;-81
2022/12/25 02:17:54;;;;;;;80.25;35.88;;;;;;;1.39;82.62;101560.86;1591829;88;21763;-81
2022/12/25 02:21:17;;;;;;;74.85;33.58;;;;;;;1.41;82.64;101574.47;1606680;87;21362;-81
2022/12/25 02:24:21;;;;;;;73.35;33.10;;;;;;;1.40;82.60;101564.86;1612266;87;21008;-82
2022/12/25 02:27:24;;;;;;;78.52;34.63;;;;;;;1.30;82.39;101549.02;1642585;85;21015;-81
2022/12/25 02:30:04;;;;;;;80.77;35.50;;;;;;;1.29;82.63;101545.90;1671626;84;21346;-81
2022/12/25 02:32:36;;;;;;;72.72;32.65;;;;;;;1.33;82.75;101544.44;1667508;84;21892;-81
2022/12/25 02:35:14;;;;;;;72.40;32.95;;;;;;;1.34;82.80;101547.55;1653476;84;21443;-82
2022/12/25 02:37:54;;;;;;;72.53;33.85;;;;;;;1.34;82.75;101543.27;1655882;84;21356;-81
2022/12/25 02:40:29;;;;;;;69.70;32.13;;;;;;;1.33;82.80;101549.25;1662292;84;21016;-83
2022/12/25 03:08:54;;;;;;;63.68;30.65;;;;;;;1.40;82.88;101560.97;1663049;84;21490;-81
2022/12/25 03:11:32;;;;;;;67.60;30.00;;;;;;;1.40;82.94;101553.19;1664900;84;21772;-81
2022/12/25 03:16:53;;;;;;;58.48;29.52;;;;;;;1.48;83.04;101551.16;1667389;84;21032;-81
2022/12/25 03:27:42;;;;;;;56.60;29.02;;;;;;;1.49;82.95;101543.91;1649564;84;21992;-80
2022/12/25 03:33:04;;;;;;;56.08;28.60;;;;;;;1.59;82.89;101558.05;1657715;84;21067;-81
2022/12/25 03:35:42;;;;;;;53.80;28.80;;;;;;;1.64;83.02;101565.80;1649516;85;21130;-81
2022/12/25 04:37:27;;;;;;;47.62;27.62;;;;;;;1.64;82.62;101608.61;1650562;85;21894;-81
2022/12/25 04:39:54;;;;;;;49.75;29.15;;;;;;;1.65;82.62;101614.70;1662510;84;20980;-81
2022/12/25 04:42:21;;;;;;;55.90;32.25;;;;;;;1.67;82.68;101611.81;1658389;85;21028;-81
2022/12/25 04:44:47;;;;;;;58.42;31.33;;;;;;;1.68;82.73;101614.53;1658854;85;20980;-81
2022/12/25 04:47:14;;;;;;;60.23;34.65;;;;;;;1.66;82.60;101616.11;1650023;86;21009;-81
2022/12/25 04:49:41;;;;;;;53.42;31.52;;;;;;;1.65;82.62;101602.65;1650125;85;21740;-81
2022/12/25 04:52:08;;;;;;;55.33;31.35;;;;;;;1.70;82.74;101609.46;1654436;85;20981;-81
2022/12/25 04:54:36;;;;;;;50.33;27.52;;;;;;;1.75;82.86;101605.12;1658868;85;20984;-81
2022/12/25 04:57:03;;;;;;;52.53;28.75;;;;;;;1.82;82.89;101609.45;1625514;85;21015;-81
2022/12/25 04:59:29;;;;;;;50.52;28.45;;;;;;;1.86;82.84;101609.81;1656124;85;21065;-81
2022/12/25 05:01:56;;;;;;;51.20;29.48;;;;;;;1.88;82.79;101609.53;1655622;85;21750;-81
2022/12/25 05:04:23;;;;;;;50.28;28.60;;;;;;;1.91;82.74;101601.05;1651419;85;21479;-81
2022/12/25 05:06:50;;;;;;;46.28;27.07;;;;;;;1.93;82.78;101605.95;1652996;85;21119;-81
2022/12/25 05:09:17;;;;;;;52.60;28.87;;;;;;;1.96;82.69;101606.59;1638163;85;21026;-83
2022/12/25 05:11:43;;;;;;;51.88;27.65;;;;;;;1.97;82.66;101617.48;1644265;85;21009;-81
2022/12/25 05:14:10;;;;;;;49.13;27.00;;;;;;;2.00;82.69;101618.61;1605310;86;21973;-81
2022/12/25 05:16:37;;;;;;;55.15;29.02;;;;;;;2.00;82.65;101618.61;1613922;88;21014;-81
2022/12/25 05:19:04;;;;;;;55.67;31.42;;;;;;;2.01;82.59;101613.01;1600126;87;21015;-81
2022/12/25 05:21:30;;;;;;;54.20;29.30;;;;;;;2.00;82.55;101614.71;1611365;88;21042;-82
2022/12/25 05:23:57;;;;;;;57.67;30.70;;;;;;;1.97;82.46;101619.70;1612293;88;21053;-81
2022/12/25 05:26:24;;;;;;;55.70;30.97;;;;;;;1.95;82.50;101618.66;1608329;88;21031;-81
2022/12/25 05:28:51;;;;;;;56.60;29.98;;;;;;;1.94;82.49;101616.87;1620021;86;20996;-81
2022/12/25 05:31:18;;;;;;;62.17;31.75;;;;;;;1.92;82.47;101621.94;1636000;86;21073;-81
2022/12/25 05:33:45;;;;;;;61.70;32.53;;;;;;;1.93;82.50;101616.34;1631635;86;21335;-81
2022/12/25 05:36:12;;;;;;;65.17;36.48;;;;;;;1.90;82.45;101611.84;1632304;86;21047;-81
2022/12/25 05:38:39;;;;;;;76.20;38.48;;;;;;;1.89;82.41;101616.91;1651227;86;21695;-81
2022/12/25 05:41:06;;;;;;;67.97;34.53;;;;;;;1.86;82.42;101621.50;1651794;85;20996;-81
2022/12/25 05:43:33;;;;;;;66.82;33.78;;;;;;;1.82;82.41;101624.66;1659008;85;21001;-81
2022/12/25 05:46:05;;;;;;;71.75;36.75;;;;;;;1.82;82.47;101629.86;1653169;85;20996;-81
2022/12/25 05:48:33;;;;;;;68.67;35.65;;;;;;;1.82;82.56;101626.33;1653611;84;21076;-81
2022/12/25 05:51:11;;;;;;;67.10;33.38;;;;;;;1.84;82.62;101622.16;1639262;86;21691;-81
2022/12/25 05:53:38;;;;;;;67.12;34.67;;;;;;;1.87;82.68;101627.58;1608061;86;20991;-81
2022/12/25 05:56:06;;;;;;;64.22;33.30;;;;;;;1.86;82.62;101627.06;1609648;86;21129;-81
2022/12/25 05:58:33;;;;;;;69.70;32.33;;;;;;;1.88;82.64;101633.30;1596724;88;21050;-81
2022/12/25 06:01:00;;;;;;;56.65;29.85;;;;;;;1.87;82.57;101640.16;1639163;86;21018;-81
2022/12/25 06:03:27;;;;;;;65.28;29.27;;;;;;;1.85;82.58;101643.45;1624859;86;21820;-81
2022/12/25 06:05:54;;;;;;;62.53;31.70;;;;;;;1.84;82.62;101649.05;1616160;87;20999;-81
2022/12/25 06:08:20;;;;;;;67.03;31.82;;;;;;;1.79;82.46;101653.38;1607793;87;21011;-81
2022/12/25 06:10:47;;;;;;;65.65;31.87;;;;;;;1.77;82.60;101644.17;1604120;87;21058;-81
2022/12/25 06:13:14;;;;;;;57.17;30.70;;;;;;;1.70;82.50;101644.09;1606231;88;21014;-81
2022/12/25 06:15:41;;;;;;;60.80;30.02;;;;;;;1.68;82.65;101646.97;1608888;88;21874;-81
2022/12/25 06:18:08;;;;;;;59.53;31.73;;;;;;;1.69;82.66;101643.98;1609692;88;21102;-81
2022/12/25 06:20:34;;;;;;;60.55;31.42;;;;;;;1.72;82.86;101636.43;1619546;88;21644;-81
2022/12/25 06:23:01;;;;;;;60.28;31.30;;;;;;;1.77;82.84;101635.49;1605378;88;21046;-81
2022/12/25 06:25:28;;;;;;;68.80;34.92;;;;;;;1.80;82.79;101648.68;1609092;88;21070;-81
2022/12/25 06:27:54;;;;;;;63.70;31.68;;;;;;;1.79;82.76;101654.68;1619867;86;21765;-81
2022/12/25 06:30:21;;;;;;;63.58;32.95;;;;;;;1.81;82.73;101654.40;1620079;86;21032;-81
2022/12/25 06:32:48;;;;;;;62.03;31.65;;;;;;;1.82;82.66;101660.08;1617590;86;21065;-81
2022/12/25 06:35:15;;;;;;;60.30;31.82;;;;;;;1.84;82.69;101665.91;1637737;86;20989;-81
2022/12/25 06:37:42;;;;;;;56.80;31.40;;;;;;;1.88;82.74;101668.34;1637356;86;21527;-81
2022/12/25 06:40:09;;;;;;;56.40;30.72;;;;;;;1.91;82.73;101667.26;1643121;86;21804;-81
2022/12/25 06:42:35;;;;;;;59.38;30.97;;;;;;;1.92;82.65;101677.77;1636717;86;21033;-81
2022/12/25 06:45:02;;;;;;;58.42;31.75;;;;;;;1.94;82.65;101685.27;1632483;86;20994;-81
2022/12/25 06:47:29;;;;;;;61.13;33.25;;;;;;;1.97;82.62;101692.77;1627296;86;21019;-81
2022/12/25 06:49:56;;;;;;;54.55;30.77;;;;;;;1.96;82.54;101687.98;1629067;86;21080;-90
2022/12/25 06:52:23;;;;;;;62.65;32.53;;;;;;;1.96;82.54;101687.98;1635548;86;21732;-81
2022/12/25 06:54:50;;;;;;;61.65;33.18;;;;;;;1.97;82.56;101694.08;1629060;86;21546;-90
2022/12/25 06:57:18;;;;;;;64.72;32.78;;;;;;;1.93;82.44;101686.08;1628443;86;21610;-91
2022/12/25 06:59:44;;;;;;;58.87;31.95;;;;;;;1.93;82.50;101695.16;1598853;87;21071;-91
2022/12/25 07:02:19;;;;;;;61.58;31.52;;;;;;;1.94;82.46;101702.14;1603649;88;21134;-91
2022/12/25 07:04:45;;;;;;;59.50;33.10;;;;;;;1.97;82.53;101711.87;1602465;88;21798;-91
2022/12/25 07:07:12;;;;;;;61.33;31.73;;;;;;;1.98;82.45;101709.77;1613114;85;21085;-91
2022/12/25 07:09:41;;;;;;;55.23;30.10;;;;;;;1.99;82.45;101706.77;1602938;86;21088;-91
2022/12/25 07:12:18;;;;;;;57.83;31.95;;;;;;;1.99;82.40;101715.48;1629092;86;21212;-93
2022/12/25 07:14:47;;;;;;;60.55;32.65;;;;;;;1.99;82.31;101709.38;1609909;88;21525;-91
2022/12/25 07:17:15;;;;;;;60.58;31.85;;;;;;;1.98;82.38;101711.07;1685846;84;22667;-92
2022/12/25 07:19:42;;;;;;;58.38;29.27;;;;;;;2.00;82.41;101718.58;1662645;84;21072;-91
2022/12/25 07:22:09;;;;;;;66.33;33.38;;;;;;;2.04;82.41;101721.91;1652508;84;21087;-91
2022/12/25 07:24:36;;;;;;;61.63;33.33;;;;;;;2.03;82.29;101725.72;1662932;84;21123;-91
2022/12/25 07:27:03;;;;;;;66.65;34.27;;;;;;;2.00;82.24;101738.45;1659481;84;21079;-91
2022/12/25 07:29:29;;;;;;;65.67;35.00;;;;;;;2.01;82.33;101745.08;1654482;84;21758;-91
2022/12/25 07:31:57;;;;;;;67.90;35.43;;;;;;;2.02;82.32;101744.27;1653914;84;21139;-91
2022/12/25 07:34:24;;;;;;;70.20;34.73;;;;;;;2.00;82.27;101748.84;1651633;85;21087;-91
2022/12/25 07:36:51;;;;;;;67.00;34.98;;;;;;;1.92;82.27;101741.78;1668001;84;21039;-81
2022/12/25 07:39:17;;;;;;;71.22;37.15;;;;;;;2.01;82.33;101763.62;1668631;84;22281;-83
2022/12/25 07:41:44;;;;;;;73.37;38.92;;;;;;;2.02;82.33;101765.45;1657473;84;21738;-81
2022/12/25 07:44:11;;;;;;;74.67;37.50;;;;;;;2.06;82.37;101764.88;1659212;84;21707;-81
2022/12/25 07:46:38;;;;;;;73.12;37.10;;;;;;;2.08;82.42;101772.02;1663077;84;21102;-81
2022/12/25 07:49:04;;;;;;;76.87;37.58;;;;;;;2.12;82.36;101775.34;1651238;84;21076;-81
2022/12/25 07:51:31;;;;;;;76.97;37.80;;;;;;;2.15;82.42;101773.37;1648426;84;21064;-81
2022/12/25 07:53:58;;;;;;;69.32;36.83;;;;;;;2.21;82.43;101771.63;1651492;84;21748;-81
2022/12/25 07:56:25;;;;;;;75.57;38.30;;;;;;;2.24;82.33;101778.36;1660309;84;21059;-81
2022/12/25 07:58:51;;;;;;;68.65;36.98;;;;;;;2.27;82.29;101774.30;1653862;84;21103;-81
2022/12/25 08:01:22;;;;;;;71.62;39.38;;;;;;;2.33;82.35;101772.55;1659993;84;21083;-81
2022/12/25 08:03:54;;;;;;;76.77;40.70;;;;;;;2.37;82.27;101767.20;1639896;86;21118;-81
2022/12/25 08:06:23;;;;;;;81.10;42.40;;;;;;;2.40;82.25;101760.91;1663427;84;21809;-81
2022/12/25 08:08:50;;;;;;;74.70;38.92;;;;;;;2.43;82.21;101753.34;1644184;84;21456;-81
2022/12/25 08:11:17;;;;;;;82.10;41.20;;;;;;;2.34;82.12;101751.86;1622648;87;21144;-81
2022/12/25 08:13:44;;;;;;;73.57;38.78;;;;;;;2.45;82.03;101779.05;1613860;86;21486;-81
2022/12/25 08:16:11;;;;;;;74.32;37.20;;;;;;;2.46;82.09;101779.17;1608637;87;22169;-81
2022/12/25 08:18:38;;;;;;;75.62;38.80;;;;;;;2.47;81.98;101783.96;1614302;87;21798;-81
2022/12/25 08:21:08;;;;;;;68.62;38.15;;;;;;;2.47;82.00;101780.95;1614279;86;20970;-81
2022/12/25 08:23:36;;;;;;;74.95;39.33;;;;;;;2.49;81.95;101780.67;1633708;85;20997;-81
2022/12/25 08:26:03;;;;;;;87.62;40.63;;;;;;;2.45;81.86;101772.15;1603479;88;21524;-81
2022/12/25 08:28:30;;;;;;;82.88;42.13;;;;;;;2.47;81.91;101777.06;1650312;85;20992;-81
2022/12/25 08:30:57;;;;;;;81.85;43.87;;;;;;;2.48;81.90;101778.88;1633477;86;22929;-81
2022/12/25 08:33:24;;;;;;;78.97;43.30;;;;;;;2.57;82.06;101785.54;1637177;85;21031;-82
2022/12/25 08:35:51;;;;;;;80.00;43.42;;;;;;;2.64;82.09;101788.70;1635823;85;21026;-81
2022/12/25 08:38:17;;;;;;;92.05;48.63;;;;;;;2.70;82.05;101796.97;1637500;85;21150;-82
2022/12/25 08:40:44;;;;;;;88.05;47.25;;;;;;;2.72;81.90;101798.36;1638856;85;20998;-82
2022/12/25 08:43:11;;;;;;;90.50;49.48;;;;;;;2.73;81.88;101801.08;1633741;86;21783;-82
2022/12/25 08:45:38;;;;;;;94.35;52.78;;;;;;;2.73;81.80;101787.19;1603013;87;21072;-82
2022/12/25 08:48:04;;;;;;;92.82;49.50;;;;;;;2.71;81.64;101787.47;1643643;85;21000;-81
2022/12/25 08:50:31;;;;;;;85.40;47.30;;;;;;;2.71;81.76;101783.57;1608725;87;21073;-82
2022/12/25 08:52:58;;;;;;;83.55;46.70;;;;;;;2.74;81.79;101779.91;1636461;85;21004;-82
2022/12/25 08:55:24;;;;;;;88.58;44.73;;;;;;;2.76;81.85;101780.92;1616293;87;21754;-82
2022/12/25 08:57:53;;;;;;;76.47;42.98;;;;;;;2.81;81.83;101786.44;1618227;86;21065;-81
2022/12/25 09:00:20;;;;;;;76.07;41.08;;;;;;;2.85;81.82;101784.19;1637279;85;21780;-81
2022/12/25 09:02:46;;;;;;;76.87;42.05;;;;;;;2.89;81.81;101778.78;1608462;87;20991;-81
2022/12/25 09:05:14;;;;;;;73.30;40.23;;;;;;;2.87;81.65;101783.91;1632069;85;21026;-82
2022/12/25 09:07:41;;;;;;;73.28;41.15;;;;;;;2.84;81.55;101777.17;1643458;85;21747;-81
2022/12/25 09:10:09;;;;;;;80.30;41.45;;;;;;;2.81;81.52;101781.23;1617124;86;21038;-81
2022/12/25 09:12:36;;;;;;;74.40;39.50;;;;;;;2.82;81.59;101783.06;1595558;87;21097;-81
2022/12/25 09:15:03;;;;;;;79.27;41.15;;;;;;;2.83;81.59;101800.05;1597498;88;21116;-91
2022/12/25 09:17:32;;;;;;;73.25;40.90;;;;;;;2.84;81.50;101810.08;1583262;88;21106;-92
2022/12/25 09:19:59;;;;;;;85.55;43.52;;;;;;;2.86;81.64;101808.08;1601258;87;21791;-91
2022/12/25 09:22:26;;;;;;;94.28;47.25;;;;;;;2.80;81.40;101810.25;1593139;88;21091;-91
2022/12/25 09:24:53;;;;;;;96.15;51.28;;;;;;;2.71;81.32;101812.16;1623514;87;21751;-91
2022/12/25 09:27:20;;;;;;;86.08;46.73;;;;;;;2.67;81.46;101821.44;1611931;88;21359;-91
2022/12/25 09:29:47;;;;;;;93.05;47.43;;;;;;;2.71;81.61;101827.36;1590321;89;21104;-91
2022/12/25 09:32:13;;;;;;;95.10;48.00;;;;;;;2.75;81.71;101821.99;1587666;89;21757;-91
2022/12/25 09:34:40;;;;;;;97.17;48.80;;;;;;;2.72;81.50;101815.26;1605675;86;21129;-91
2022/12/25 09:37:07;;;;;;;97.20;50.30;;;;;;;2.69;81.56;101808.55;1604262;88;21092;-91
2022/12/25 09:39:34;;;;;;;94.77;50.65;;;;;;;2.68;81.60;101805.06;1606240;88;21569;-91
2022/12/25 09:42:22;;;;;;;94.92;50.48;;;;;;;2.71;81.65;101804.37;1598366;88;21126;-91
2022/12/25 09:45:11;;;;;;;109.67;56.90;;;;;;;2.72;81.67;101803.19;1632050;86;21790;-91
2022/12/25 09:47:41;;;;;;;109.92;56.37;;;;;;;2.79;81.78;101804.92;1592507;88;21105;-90
2022/12/25 09:50:19;;;;;;;96.63;52.88;;;;;;;2.85;81.79;101811.50;1602146;87;21062;-90
2022/12/25 09:53:21;;;;;;;90.97;48.13;;;;;;;2.89;81.83;101813.89;1600431;89;21210;-91
2022/12/25 09:56:02;;;;;;;98.82;48.10;;;;;;;2.98;81.84;101810.66;1615846;87;21447;-91
2022/12/25 09:58:35;;;;;;;106.30;51.70;;;;;;;2.99;81.75;101799.89;1596655;88;21767;-91
2022/12/25 10:01:34;;;;;;;108.65;55.25;;;;;;;3.07;81.78;101811.73;1606586;88;21104;-90
2022/12/25 10:04:30;;;;;;;109.05;53.87;;;;;;;3.11;81.72;101811.16;1594510;88;21092;-91
2022/12/25 10:07:09;;;;;;;107.55;53.65;;;;;;;3.17;81.73;101815.49;1594860;88;21212;-90
2022/12/25 10:09:58;;;;;;;118.28;57.95;;;;;;;3.25;81.72;101811.77;1627328;87;21077;-90
2022/12/25 10:12:33;;;;;;;120.70;57.93;;;;;;;3.34;81.74;101818.41;1587071;88;21774;-93
2022/12/25 10:15:42;;;;;;;130.18;59.65;;;;;;;3.39;81.57;101814.03;1596476;87;21103;-90
2022/12/25 10:18:17;;;;;;;127.30;59.60;;;;;;;3.43;81.46;101815.16;1584790;88;21065;-94
2022/12/25 10:20:55;;;;;;;114.37;58.25;;;;;;;3.46;81.39;101817.98;1593218;87;21117;-83
2022/12/25 10:23:33;;;;;;;109.72;56.10;;;;;;;3.49;81.35;101815.58;1602262;88;21077;-93
2022/12/25 10:26:03;;;;;;;113.80;55.95;;;;;;;3.44;81.11;101820.88;1627794;87;21809;-93
2022/12/25 10:28:37;;;;;;;111.72;55.85;;;;;;;3.45;81.24;101812.27;1584704;88;21041;-92
2022/12/25 10:31:22;;;;;;;113.52;56.48;;;;;;;3.43;81.06;101813.45;1581231;89;21116;-92
2022/12/25 10:33:55;;;;;;;105.03;54.70;;;;;;;3.35;81.02;101809.41;1589351;88;21064;-92
2022/12/25 10:36:27;;;;;;;117.60;57.10;;;;;;;3.35;81.08;101815.02;1593308;88;21050;-92
2022/12/25 10:38:54;;;;;;;111.88;53.78;;;;;;;3.36;81.22;101817.74;1608551;88;21786;-91
2022/12/25 10:41:44;;;;;;;107.78;53.70;;;;;;;3.36;81.11;101811.23;1587045;88;21569;-92
2022/12/25 10:44:19;;;;;;;111.80;52.73;;;;;;;3.31;80.97;101808.70;1592485;88;21101;-91
2022/12/25 10:46:54;;;;;;;113.28;54.45;;;;;;;3.30;81.07;101808.17;1587073;88;21086;-91
2022/12/25 10:49:35;;;;;;;110.15;53.98;;;;;;;3.30;81.01;101801.66;1595341;88;21102;-91
2022/12/25 10:52:07;;;;;;;114.92;53.70;;;;;;;3.29;81.05;101789.47;1596324;88;22588;-92
2022/12/25 10:54:35;;;;;;;118.87;53.75;;;;;;;3.31;81.22;101784.86;1590880;88;21588;-92
2022/12/25 10:57:17;;;;;;;113.47;54.90;;;;;;;3.43;81.33;101791.73;1603674;88;21083;-92
2022/12/25 10:59:55;;;;;;;124.58;58.10;;;;;;;3.48;81.11;101780.84;1581177;90;21080;-92
2022/12/25 11:02:32;;;;;;;118.40;58.95;;;;;;;3.48;80.99;101773.04;1582126;89;21621;-93
2022/12/25 11:05:05;;;;;;;113.17;56.42;;;;;;;3.45;80.97;101779.35;1591864;88;21784;-94
2022/12/25 11:07:32;;;;;;;110.55;55.50;;;;;;;3.47;81.04;101774.23;1580293;90;21149;-93
2022/12/25 11:10:06;;;;;;;108.27;53.30;;;;;;;3.48;81.09;101778.66;1582852;89;21660;-94
2022/12/25 11:12:42;;;;;;;112.32;55.52;;;;;;;3.50;81.08;101788.36;1594184;88;21083;-91
2022/12/25 11:15:41;;;;;;;113.17;54.58;;;;;;;3.50;81.04;101788.36;1598830;88;21486;-93
2022/12/25 11:18:25;;;;;;;118.72;57.05;;;;;;;3.50;80.98;101799.18;1588536;88;21804;-91
2022/12/25 11:20:58;;;;;;;123.90;57.90;;;;;;;3.52;81.06;101795.39;1622526;87;21128;-91
2022/12/25 11:23:26;;;;;;;125.38;57.35;;;;;;;3.50;80.98;101794.88;1615924;87;21720;-91
2022/12/25 11:26:03;;;;;;;123.33;58.63;;;;;;;3.46;80.95;101788.05;1610356;88;21113;-91
2022/12/25 11:28:32;;;;;;;129.50;58.58;;;;;;;3.46;80.92;101790.66;1595369;89;21111;-93
2022/12/25 11:31:03;;;;;;;116.55;54.33;;;;;;;3.49;81.12;101782.67;1577334;89;22461;-93
2022/12/25 11:33:39;;;;;;;108.80;55.63;;;;;;;3.53;81.11;101780.26;1589684;89;21099;-93
2022/12/25 11:36:23;;;;;;;101.40;53.17;;;;;;;3.61;81.22;101780.01;1580885;89;21127;-93
2022/12/25 11:38:51;;;;;;;105.85;52.58;;;;;;;3.65;81.16;101780.72;1577318;89;21252;-90
2022/12/25 11:41:19;;;;;;;127.75;56.18;;;;;;;3.59;80.83;101775.09;1583295;89;21667;-91
2022/12/25 11:43:52;;;;;;;157.32;63.75;;;;;;;3.49;80.70;101775.23;1571130;90;21796;-91
2022/12/25 11:46:41;;;;;;;190.73;73.02;;;;;;;3.47;80.84;101772.92;1583914;89;21109;-92
2022/12/25 11:49:13;;;;;;;139.07;59.60;;;;;;;3.43;80.80;101769.20;1580756;89;21081;-91
2022/12/25 11:51:41;;;;;;;115.55;53.08;;;;;;;3.40;80.78;101769.41;1584279;89;21105;-92
2022/12/25 11:54:27;;;;;;;110.60;52.40;;;;;;;3.32;80.67;101771.45;1581089;90;21109;-92
2022/12/25 11:56:54;;;;;;;96.53;48.40;;;;;;;3.26;80.72;101772.33;1596793;89;21803;-93
2022/12/25 11:59:32;;;;;;;106.58;50.98;;;;;;;3.20;80.73;101774.50;1583792;89;21111;-94
2022/12/25 12:02:24;;;;;;;101.22;49.05;;;;;;;3.15;80.80;101771.96;1587700;89;21103;-92
2022/12/25 12:05:02;;;;;;;107.37;51.20;;;;;;;3.14;80.96;101762.37;1585676;89;21079;-93
2022/12/25 12:07:31;;;;;;;94.25;50.03;;;;;;;3.17;81.09;101766.47;1579619;88;21143;-93
2022/12/25 12:10:06;;;;;;;91.50;48.63;;;;;;;3.15;81.02;101766.76;1592968;88;22521;-93
2022/12/25 12:12:59;;;;;;;97.15;47.55;;;;;;;3.15;81.16;101773.27;1596583;88;21061;-94
2022/12/25 12:15:42;;;;;;;100.93;47.83;;;;;;;3.12;81.00;101773.95;1616522;87;21072;-94
2022/12/25 12:18:24;;;;;;;105.45;47.53;;;;;;;3.07;81.10;101785.31;1592159;87;21408;-93
2022/12/25 12:21:21;;;;;;;106.03;48.20;;;;;;;3.05;81.17;101789.51;1603562;87;21044;-93
2022/12/25 12:23:56;;;;;;;108.27;49.00;;;;;;;3.04;81.21;101798.50;1612072;87;21786;-92
2022/12/25 12:26:27;;;;;;;104.80;48.20;;;;;;;2.99;81.24;101802.48;1580616;89;21658;-90
2022/12/25 12:28:59;;;;;;;107.75;50.98;;;;;;;2.96;81.23;101800.95;1573282;89;21093;-91
2022/12/25 12:31:39;;;;;;;101.07;48.85;;;;;;;2.88;81.20;101803.89;1623164;86;21080;-92
2022/12/25 12:34:06;;;;;;;105.25;49.27;;;;;;;2.86;81.32;101805.48;1638664;86;21091;-91
2022/12/25 12:36:33;;;;;;;105.30;50.43;;;;;;;2.87;81.42;101807.31;1635686;85;21761;-91
2022/12/25 12:39:00;;;;;;;103.38;50.00;;;;;;;2.91;81.54;101818.44;1649782;85;21067;-91
2022/12/25 12:41:43;;;;;;;107.37;51.95;;;;;;;2.96;81.68;101824.36;1653897;86;21115;-91
2022/12/25 12:44:10;;;;;;;113.27;52.50;;;;;;;2.98;81.57;101824.07;1601419;86;21433;-92
2022/12/25 12:46:38;;;;;;;102.20;48.65;;;;;;;2.98;81.53;101821.06;1642036;86;21333;-91
2022/12/25 12:49:31;;;;;;;104.95;50.65;;;;;;;3.00;81.64;101816.87;1663776;84;21921;-91
2022/12/25 12:52:32;;;;;;;110.75;51.60;;;;;;;2.99;81.53;101815.09;1660472;84;21262;-92
2022/12/25 12:55:11;;;;;;;101.20;50.75;;;;;;;2.97;81.48;101805.38;1649666;86;21631;-92
2022/12/25 12:57:41;;;;;;;101.50;50.25;;;;;;;2.95;81.57;101811.77;1659724;85;22140;-93
2022/12/25 13:00:20;;;;;;;113.62;51.83;;;;;;;2.95;81.62;101817.33;1628022;86;21296;-92
2022/12/25 13:03:15;;;;;;;100.10;48.25;;;;;;;2.91;81.65;101817.54;1635927;86;21774;-92
2022/12/25 13:06:02;;;;;;;101.20;49.13;;;;;;;2.86;81.66;101812.39;1645922;86;21043;-92
2022/12/25 13:09:03;;;;;;;104.30;50.70;;;;;;;2.84;81.79;101812.27;1544552;90;21112;-92
2022/12/25 13:11:32;;;;;;;105.12;49.33;;;;;;;2.83;81.82;101807.84;1640491;86;21124;-92
2022/12/25 13:14:17;;;;;;;106.20;50.78;;;;;;;2.79;81.85;101812.73;1657621;86;21083;-92
2022/12/25 13:16:48;;;;;;;100.70;48.35;;;;;;;2.79;82.01;101811.42;1667511;84;21812;-92
2022/12/25 13:19:25;;;;;;;91.72;46.75;;;;;;;2.76;82.03;101817.31;1673943;84;21063;-92
2022/12/25 13:21:56;;;;;;;93.25;47.45;;;;;;;2.75;82.03;101806.80;1668747;84;21083;-91